Time;durP1;ratioP1;P1;durP2;ratioP2;P2;SDS_P1;SDS_P2;PMS_P1;PMS_P2;Temp;Humidity;BMP_temperature;BMP_pressure;BME280_temperature;BME280_humidity;BME280_pressure;Samples;Min_cycle;Max_cycle;Signal;HPM_P1;HPM_P2
2023/09/04 00:00:45;;;;;;;0.10;0.10;;;16.90;99.90;;;;;;5046678;28;20224;-82
2023/09/04 00:03:10;;;;;;;0.10;0.10;;;16.90;99.90;;;;;;5047326;28;20265;-83
2023/09/04 00:05:36;;;;;;;0.10;0.10;;;16.90;99.90;;;;;;5061071;28;20212;-82
2023/09/04 00:08:02;;;;;;;0.10;0.10;;;16.90;99.90;;;;;;5046200;28;20198;-83
2023/09/04 00:10:28;;;;;;;0.10;0.10;;;16.90;99.90;;;;;;5046493;28;20674;-82
2023/09/04 00:12:54;;;;;;;0.10;0.10;;;16.80;99.90;;;;;;5062473;28;20189;-82
2023/09/04 00:15:20;;;;;;;0.10;0.10;;;16.60;99.90;;;;;;5045982;28;20182;-82
2023/09/04 00:17:51;;;;;;;0.10;0.10;;;16.50;99.90;;;;;;5045610;28;20190;-82
2023/09/04 00:20:17;;;;;;;0.10;0.10;;;16.40;99.90;;;;;;5044796;28;20198;-83
2023/09/04 00:22:43;;;;;;;0.10;0.10;;;16.30;99.90;;;;;;5047467;28;20195;-82
2023/09/04 00:25:09;;;;;;;0.10;0.10;;;16.20;99.90;;;;;;5046306;28;20722;-82
2023/09/04 00:27:34;;;;;;;0.10;0.10;;;16.20;99.90;;;;;;5046149;28;20205;-82
2023/09/04 00:30:00;;;;;;;0.10;0.10;;;16.20;99.90;;;;;;5046505;28;21146;-82
2023/09/04 00:32:25;;;;;;;0.10;0.10;;;16.30;99.90;;;;;;5046774;28;20249;-82
2023/09/04 00:34:51;;;;;;;0.10;0.10;;;16.20;99.90;;;;;;5046413;28;20529;-82
2023/09/04 00:37:16;;;;;;;0.10;0.10;;;16.10;99.90;;;;;;5046676;28;20208;-82
2023/09/04 00:39:42;;;;;;;0.10;0.10;;;16.10;99.90;;;;;;5047027;28;20178;-82
2023/09/04 00:42:10;;;;;;;0.10;0.10;;;16.20;99.90;;;;;;5046785;28;20301;-82
2023/09/04 00:44:35;;;;;;;0.10;0.10;;;16.30;99.90;;;;;;5047117;28;20534;-82
2023/09/04 00:47:01;;;;;;;0.10;0.10;;;16.30;99.90;;;;;;5062372;28;20227;-82
2023/09/04 00:49:28;;;;;;;0.10;0.10;;;16.40;99.90;;;;;;5046073;28;20185;-83
2023/09/04 00:51:55;;;;;;;0.10;0.10;;;16.40;99.90;;;;;;5047168;28;20192;-82
2023/09/04 00:54:20;;;;;;;0.10;0.10;;;16.40;99.90;;;;;;5062466;28;20244;-83
2023/09/04 00:56:48;;;;;;;0.10;0.10;;;16.30;99.90;;;;;;5046424;28;20453;-82
2023/09/04 00:59:13;;;;;;;0.10;0.10;;;16.20;99.90;;;;;;5047342;28;20181;-82
2023/09/04 01:01:39;;;;;;;0.10;0.10;;;16.20;99.90;;;;;;5045724;28;20205;-82
2023/09/04 01:04:05;;;;;;;0.10;0.10;;;16.10;99.90;;;;;;5045939;28;20234;-82
2023/09/04 01:06:30;;;;;;;0.10;0.10;;;16.10;99.90;;;;;;5045648;28;20202;-82
2023/09/04 01:08:56;;;;;;;0.10;0.10;;;16.00;99.90;;;;;;5044786;28;20232;-82
2023/09/04 01:11:39;;;;;;;0.00;0.00;;;16.00;99.90;;;;;;5045133;28;20273;-82
2023/09/04 01:14:13;;;;;;;0.00;0.00;;;15.80;99.90;;;;;;5060898;28;20193;-82
2023/09/04 01:16:39;;;;;;;0.10;0.10;;;15.70;99.90;;;;;;5061520;28;20212;-82
2023/09/04 01:19:06;;;;;;;0.10;0.10;;;15.60;99.90;;;;;;5045785;28;20190;-82
2023/09/04 01:21:35;;;;;;;0.10;0.10;;;15.60;99.90;;;;;;5060922;28;20289;-82
2023/09/04 01:24:01;;;;;;;0.10;0.10;;;15.60;99.90;;;;;;5044971;28;20213;-82
2023/09/04 01:26:44;;;;;;;0.10;0.10;;;15.70;99.90;;;;;;5044542;28;20240;-82
2023/09/04 01:29:10;;;;;;;0.10;0.10;;;15.70;99.90;;;;;;5046311;28;20262;-82
2023/09/04 01:31:52;;;;;;;0.10;0.10;;;15.70;99.90;;;;;;5045992;28;20273;-82
2023/09/04 01:34:24;;;;;;;0.10;0.10;;;15.80;99.90;;;;;;5044797;28;20197;-82
2023/09/04 01:36:52;;;;;;;0.10;0.10;;;15.80;99.90;;;;;;5043828;28;20229;-82
2023/09/04 01:39:19;;;;;;;0.10;0.10;;;15.80;99.90;;;;;;5046930;28;20311;-82
2023/09/04 01:41:45;;;;;;;0.10;0.10;;;15.90;99.90;;;;;;5051324;28;20233;-82
2023/09/04 01:44:11;;;;;;;0.03;0.03;;;15.80;99.90;;;;;;5045509;28;20181;-82
2023/09/04 01:46:37;;;;;;;0.10;0.10;;;15.80;99.90;;;;;;5046532;28;20584;-83
2023/09/04 01:49:02;;;;;;;0.10;0.10;;;15.80;99.90;;;;;;5046291;28;20192;-82
2023/09/04 01:51:28;;;;;;;0.10;0.10;;;15.70;99.90;;;;;;5046111;28;20188;-82
2023/09/04 01:53:54;;;;;;;0.10;0.10;;;15.70;99.90;;;;;;5059898;28;20724;-82
2023/09/04 01:56:19;;;;;;;0.10;0.10;;;15.60;99.90;;;;;;5045829;28;20263;-82
2023/09/04 01:58:45;;;;;;;0.10;0.10;;;15.50;99.90;;;;;;5036433;28;20181;-82
2023/09/04 02:01:10;;;;;;;0.10;0.10;;;15.40;99.90;;;;;;5044315;28;20600;-82
2023/09/04 02:03:36;;;;;;;0.10;0.10;;;15.40;99.90;;;;;;5046082;28;20834;-82
2023/09/04 02:06:01;;;;;;;0.10;0.10;;;15.40;99.90;;;;;;5044711;28;20220;-82
2023/09/04 02:08:27;;;;;;;0.10;0.10;;;15.40;99.90;;;;;;5044416;28;20244;-83
2023/09/04 02:10:54;;;;;;;0.10;0.10;;;15.40;99.90;;;;;;5044438;28;20193;-82
2023/09/04 02:13:20;;;;;;;0.10;0.10;;;15.40;99.90;;;;;;5045017;28;20193;-82
2023/09/04 02:15:45;;;;;;;0.10;0.10;;;15.40;99.90;;;;;;5036908;28;20299;-82
2023/09/04 02:18:11;;;;;;;0.10;0.10;;;15.40;99.90;;;;;;5041484;28;20255;-82
2023/09/04 02:20:36;;;;;;;0.10;0.10;;;15.50;99.90;;;;;;5043075;28;20236;-82
2023/09/04 02:23:02;;;;;;;0.00;0.00;;;15.50;99.90;;;;;;5043074;28;20189;-82
2023/09/04 02:25:28;;;;;;;0.10;0.10;;;15.40;99.90;;;;;;5045367;28;20639;-81
2023/09/04 02:27:53;;;;;;;0.10;0.10;;;15.40;99.90;;;;;;5043465;28;20185;-82
2023/09/04 02:30:19;;;;;;;0.10;0.10;;;15.30;99.90;;;;;;5044491;28;20184;-81
2023/09/04 02:32:45;;;;;;;0.10;0.10;;;15.30;99.90;;;;;;5044139;28;20178;-83
2023/09/04 02:35:10;;;;;;;0.10;0.10;;;15.20;99.90;;;;;;5044755;28;20723;-82
2023/09/04 02:37:36;;;;;;;0.10;0.10;;;15.10;99.90;;;;;;5044955;28;20200;-82
2023/09/04 02:40:05;;;;;;;0.10;0.10;;;15.10;99.90;;;;;;5044230;28;20209;-82
2023/09/04 02:42:31;;;;;;;0.10;0.10;;;15.10;99.90;;;;;;5045134;28;20285;-82
2023/09/04 02:44:57;;;;;;;0.10;0.10;;;15.10;99.90;;;;;;5046303;28;20271;-82
2023/09/04 02:47:22;;;;;;;0.10;0.10;;;15.00;99.90;;;;;;5043928;28;20204;-82
2023/09/04 02:49:48;;;;;;;0.10;0.10;;;15.00;99.90;;;;;;5044225;28;20738;-82
2023/09/04 02:52:14;;;;;;;0.10;0.10;;;15.00;99.90;;;;;;5043549;28;20770;-82
2023/09/04 02:54:40;;;;;;;0.10;0.10;;;15.10;99.90;;;;;;5044909;28;20636;-82
2023/09/04 02:57:06;;;;;;;0.10;0.10;;;15.10;99.90;;;;;;5046309;28;20209;-82
2023/09/04 02:59:34;;;;;;;0.10;0.10;;;15.10;99.90;;;;;;5048788;28;20174;-82
2023/09/04 03:01:59;;;;;;;0.10;0.10;;;15.10;99.90;;;;;;5047371;28;20233;-82
2023/09/04 03:04:25;;;;;;;0.10;0.10;;;15.10;99.90;;;;;;5050538;28;20201;-82
2023/09/04 03:06:50;;;;;;;0.10;0.10;;;15.10;99.90;;;;;;5047312;28;20566;-82
2023/09/04 03:09:16;;;;;;;0.10;0.10;;;15.20;99.90;;;;;;5048467;28;21211;-82
2023/09/04 03:11:41;;;;;;;0.10;0.10;;;15.00;99.90;;;;;;5047075;28;20185;-82
2023/09/04 03:14:07;;;;;;;0.10;0.10;;;14.90;99.90;;;;;;5048009;28;20224;-82
2023/09/04 03:16:32;;;;;;;0.10;0.10;;;14.90;99.90;;;;;;5063892;28;20215;-82
2023/09/04 03:18:58;;;;;;;0.10;0.10;;;14.90;99.90;;;;;;5048522;28;20575;-82
2023/09/04 03:21:23;;;;;;;0.10;0.10;;;14.90;99.90;;;;;;5047706;28;22075;-82
2023/09/04 03:23:52;;;;;;;0.10;0.10;;;14.90;99.90;;;;;;5047666;28;21079;-82
2023/09/04 03:26:18;;;;;;;0.00;0.00;;;14.90;99.90;;;;;;5048662;28;20223;-82
2023/09/04 03:28:44;;;;;;;0.10;0.10;;;14.90;99.90;;;;;;5047761;28;20185;-82
2023/09/04 03:31:16;;;;;;;0.00;0.00;;;15.00;99.90;;;;;;5048360;28;20196;-82
2023/09/04 03:33:42;;;;;;;0.10;0.10;;;15.00;99.90;;;;;;5046196;28;20250;-82
2023/09/04 03:36:09;;;;;;;0.10;0.10;;;14.90;99.90;;;;;;5048871;28;20224;-82
2023/09/04 03:38:35;;;;;;;0.10;0.10;;;14.90;99.90;;;;;;5047738;28;20193;-82
2023/09/04 03:41:00;;;;;;;0.10;0.10;;;14.90;99.90;;;;;;5047119;28;20212;-82
2023/09/04 03:43:28;;;;;;;0.10;0.10;;;14.90;99.90;;;;;;5063495;28;21215;-82
2023/09/04 03:45:53;;;;;;;0.10;0.10;;;14.90;99.90;;;;;;5046965;28;20686;-82
2023/09/04 03:48:19;;;;;;;0.10;0.10;;;15.00;99.90;;;;;;5047223;28;20181;-82
2023/09/04 03:50:44;;;;;;;0.10;0.10;;;15.10;99.90;;;;;;5047173;28;20189;-82
2023/09/04 03:53:10;;;;;;;0.10;0.10;;;15.10;99.90;;;;;;5046916;28;20247;-82
2023/09/04 03:55:36;;;;;;;0.10;0.10;;;15.10;99.90;;;;;;5047138;28;20325;-82
2023/09/04 03:58:03;;;;;;;0.10;0.10;;;15.10;99.90;;;;;;5047288;28;20265;-82
2023/09/04 04:00:30;;;;;;;0.00;0.00;;;15.10;99.90;;;;;;5046770;28;20194;-82
2023/09/04 04:02:56;;;;;;;0.10;0.10;;;15.10;99.90;;;;;;5045341;28;20192;-82
2023/09/04 04:05:23;;;;;;;0.10;0.10;;;15.10;99.90;;;;;;5046350;28;20644;-82
2023/09/04 04:07:49;;;;;;;0.07;0.07;;;15.10;99.90;;;;;;5045747;28;21119;-82
2023/09/04 04:10:14;;;;;;;0.10;0.10;;;15.20;99.90;;;;;;5045873;28;20196;-82
2023/09/04 04:12:40;;;;;;;0.10;0.10;;;15.20;99.90;;;;;;5045845;28;20189;-82
2023/09/04 04:15:06;;;;;;;0.10;0.10;;;15.20;99.90;;;;;;5061887;28;20220;-82
2023/09/04 04:17:36;;;;;;;0.10;0.10;;;15.10;99.90;;;;;;5055218;28;20611;-82
2023/09/04 04:20:06;;;;;;;0.10;0.10;;;15.10;99.90;;;;;;5045224;28;20272;-82
2023/09/04 04:22:32;;;;;;;0.10;0.10;;;15.20;99.90;;;;;;5063588;28;20292;-82
2023/09/04 04:24:58;;;;;;;0.10;0.10;;;15.20;99.90;;;;;;5046229;28;20667;-82
2023/09/04 04:27:24;;;;;;;0.10;0.10;;;15.10;99.90;;;;;;5044179;28;20207;-82
2023/09/04 04:29:52;;;;;;;0.10;0.10;;;15.00;99.90;;;;;;5046227;28;20177;-82
2023/09/04 04:32:17;;;;;;;0.10;0.10;;;14.90;99.90;;;;;;5045367;28;20193;-82
2023/09/04 04:34:43;;;;;;;0.10;0.10;;;14.80;99.90;;;;;;5046622;28;20192;-82
2023/09/04 04:37:09;;;;;;;0.10;0.10;;;14.60;99.90;;;;;;5046947;28;20197;-82
2023/09/04 04:39:34;;;;;;;0.10;0.10;;;14.50;99.90;;;;;;5044451;28;20182;-82
2023/09/04 04:42:00;;;;;;;0.10;0.10;;;14.30;99.90;;;;;;5046220;28;20705;-82
2023/09/04 04:44:26;;;;;;;0.00;0.00;;;14.30;99.90;;;;;;5048175;28;20173;-82
2023/09/04 04:46:51;;;;;;;0.10;0.10;;;14.20;99.90;;;;;;5038781;28;20272;-82
2023/09/04 04:49:20;;;;;;;0.00;0.00;;;14.20;99.90;;;;;;5046206;28;20186;-83
2023/09/04 04:51:46;;;;;;;0.10;0.10;;;14.30;99.90;;;;;;5062482;28;20537;-82
2023/09/04 04:54:11;;;;;;;0.10;0.10;;;14.40;99.90;;;;;;5045517;28;20193;-82
2023/09/04 04:56:37;;;;;;;0.10;0.10;;;14.60;99.90;;;;;;5047314;28;20680;-82
2023/09/04 04:59:03;;;;;;;0.10;0.10;;;14.70;99.90;;;;;;5045829;28;20196;-82
2023/09/04 05:01:28;;;;;;;0.10;0.10;;;14.80;99.90;;;;;;5044952;28;20236;-82
2023/09/04 05:03:54;;;;;;;0.10;0.10;;;14.90;99.90;;;;;;5044759;28;20277;-82
2023/09/04 05:06:19;;;;;;;0.10;0.10;;;14.90;99.90;;;;;;5047049;28;20272;-82
2023/09/04 05:08:45;;;;;;;0.10;0.10;;;14.90;99.90;;;;;;5045354;28;20683;-82
2023/09/04 05:11:10;;;;;;;0.10;0.10;;;15.00;99.90;;;;;;5047681;28;20204;-82
2023/09/04 05:13:36;;;;;;;0.03;0.03;;;15.00;99.90;;;;;;5047429;28;20193;-84
2023/09/04 05:16:05;;;;;;;0.10;0.10;;;15.10;99.90;;;;;;5045523;28;20208;-83
2023/09/04 05:18:31;;;;;;;0.10;0.10;;;15.10;99.90;;;;;;5043640;28;20185;-82
2023/09/04 05:20:57;;;;;;;0.10;0.10;;;15.20;99.90;;;;;;5044025;28;20220;-82
2023/09/04 05:23:22;;;;;;;0.10;0.10;;;15.20;99.90;;;;;;5049399;28;20561;-83
2023/09/04 05:25:57;;;;;;;0.07;0.07;;;15.20;99.90;;;;;;5050510;28;20222;-82
2023/09/04 05:28:23;;;;;;;0.10;0.10;;;15.20;99.90;;;;;;5044849;28;20554;-83
2023/09/04 05:30:48;;;;;;;0.10;0.10;;;15.20;99.90;;;;;;5048033;28;20721;-83
2023/09/04 05:33:15;;;;;;;0.10;0.10;;;15.30;99.90;;;;;;5048207;28;20264;-83
2023/09/04 05:35:41;;;;;;;0.10;0.10;;;15.40;99.90;;;;;;5064777;28;20206;-83
2023/09/04 05:38:07;;;;;;;0.10;0.10;;;15.50;99.90;;;;;;5048578;28;20185;-82
2023/09/04 05:40:33;;;;;;;0.10;0.10;;;15.60;99.90;;;;;;5045218;28;20186;-82
2023/09/04 05:42:59;;;;;;;0.10;0.10;;;15.70;99.90;;;;;;5046892;28;20181;-82
2023/09/04 05:45:25;;;;;;;0.10;0.10;;;15.90;99.90;;;;;;5047755;28;20197;-82
2023/09/04 05:47:51;;;;;;;0.10;0.10;;;16.00;99.90;;;;;;5047359;28;20196;-83
2023/09/04 05:50:17;;;;;;;0.10;0.10;;;16.10;99.90;;;;;;5047085;28;20724;-82
2023/09/04 05:52:42;;;;;;;0.10;0.10;;;16.10;99.90;;;;;;5046480;28;20239;-83
2023/09/04 05:55:08;;;;;;;0.10;0.10;;;16.20;99.90;;;;;;5064150;28;20281;-83
2023/09/04 05:57:35;;;;;;;0.10;0.10;;;16.30;99.90;;;;;;5062609;28;20277;-83
2023/09/04 06:00:00;;;;;;;0.10;0.10;;;16.40;99.90;;;;;;5048687;28;20181;-82
2023/09/04 06:02:27;;;;;;;0.10;0.10;;;16.50;99.90;;;;;;5062742;28;20296;-82
2023/09/04 06:04:53;;;;;;;0.10;0.10;;;16.60;99.90;;;;;;5048809;28;20182;-83
2023/09/04 06:07:19;;;;;;;0.10;0.10;;;16.70;99.90;;;;;;5049562;28;20218;-83
2023/09/04 06:09:44;;;;;;;0.10;0.10;;;16.70;99.90;;;;;;5047127;28;20195;-82
2023/09/04 06:12:11;;;;;;;0.10;0.10;;;16.90;99.90;;;;;;5062912;28;20667;-83
2023/09/04 06:14:40;;;;;;;0.67;0.67;;;16.80;99.90;;;;;;5047340;28;20243;-83
2023/09/04 06:17:06;;;;;;;0.10;0.10;;;17.00;99.90;;;;;;5046402;28;20279;-83
2023/09/04 06:19:32;;;;;;;0.10;0.10;;;17.10;99.90;;;;;;5045254;28;20200;-83
2023/09/04 06:21:58;;;;;;;0.10;0.10;;;17.30;99.90;;;;;;5046083;28;20305;-83
2023/09/04 06:24:23;;;;;;;0.10;0.10;;;17.30;99.90;;;;;;5048043;28;20186;-83
2023/09/04 06:26:50;;;;;;;0.10;0.10;;;17.40;99.90;;;;;;5047976;28;20312;-83
2023/09/04 06:29:19;;;;;;;0.10;0.10;;;17.50;99.90;;;;;;5046747;28;20208;-82
2023/09/04 06:31:45;;;;;;;0.10;0.10;;;17.60;99.90;;;;;;5045914;28;20186;-83
2023/09/04 06:34:11;;;;;;;0.10;0.10;;;17.70;99.90;;;;;;5048417;28;20213;-82
2023/09/04 06:36:37;;;;;;;0.10;0.10;;;17.80;99.90;;;;;;5046317;28;20210;-83
2023/09/04 06:39:03;;;;;;;0.10;0.10;;;17.90;99.90;;;;;;5046969;28;20211;-83
2023/09/04 06:41:29;;;;;;;1.10;1.10;;;17.90;99.90;;;;;;5062772;28;20201;-83
2023/09/04 06:43:55;;;;;;;0.10;0.10;;;17.90;99.90;;;;;;5045315;28;20211;-81
2023/09/04 06:46:21;;;;;;;0.10;0.10;;;18.00;99.90;;;;;;5046121;28;20694;-82
2023/09/04 06:48:47;;;;;;;0.10;0.10;;;18.20;99.90;;;;;;5045329;28;20189;-84
2023/09/04 06:51:12;;;;;;;0.10;0.10;;;18.30;99.90;;;;;;5046585;28;20242;-82
2023/09/04 06:53:38;;;;;;;0.10;0.10;;;18.20;99.90;;;;;;5047406;28;20392;-81
2023/09/04 06:56:03;;;;;;;0.10;0.10;;;18.20;99.90;;;;;;5046856;28;20216;-83
2023/09/04 06:58:29;;;;;;;0.10;0.10;;;18.40;99.90;;;;;;5046836;28;20182;-82
2023/09/04 07:00:56;;;;;;;0.10;0.10;;;18.50;99.90;;;;;;5046833;28;20209;-82
2023/09/04 07:03:22;;;;;;;0.10;0.10;;;18.50;99.90;;;;;;5047756;28;20181;-82
2023/09/04 07:05:48;;;;;;;0.10;0.10;;;18.60;99.90;;;;;;5048381;28;20201;-82
2023/09/04 07:08:13;;;;;;;0.10;0.10;;;18.60;99.90;;;;;;5044955;28;20682;-82
2023/09/04 07:10:39;;;;;;;0.10;0.10;;;19.00;99.90;;;;;;5044160;28;20174;-82
2023/09/04 07:13:05;;;;;;;0.10;0.10;;;19.10;99.90;;;;;;5044322;28;20193;-82
2023/09/04 07:15:30;;;;;;;0.10;0.10;;;19.30;99.90;;;;;;5044274;28;20242;-82
2023/09/04 07:18:00;;;;;;;0.10;0.10;;;19.30;99.90;;;;;;5059239;28;20186;-82
2023/09/04 07:20:27;;;;;;;0.10;0.10;;;19.20;99.90;;;;;;5044676;28;20241;-81
2023/09/04 07:22:52;;;;;;;0.10;0.10;;;19.60;99.90;;;;;;5046467;28;20241;-82
2023/09/04 07:25:18;;;;;;;0.10;0.10;;;19.70;99.90;;;;;;5044287;28;20178;-82
2023/09/04 07:27:44;;;;;;;0.10;0.10;;;19.80;99.90;;;;;;5062041;28;20193;-82
2023/09/04 07:30:11;;;;;;;0.10;0.10;;;19.50;99.90;;;;;;5044990;28;20901;-82
2023/09/04 07:32:37;;;;;;;0.10;0.10;;;19.40;99.90;;;;;;5045125;28;20186;-82
2023/09/04 07:35:03;;;;;;;0.10;0.10;;;19.70;99.90;;;;;;5044833;28;20574;-82
2023/09/04 07:37:29;;;;;;;0.10;0.10;;;19.40;99.90;;;;;;5045419;28;20209;-82
2023/09/04 07:39:55;;;;;;;0.10;0.10;;;19.40;99.90;;;;;;5047158;28;20610;-82
2023/09/04 07:42:24;;;;;;;0.10;0.10;;;19.50;99.90;;;;;;5047292;28;20674;-82
2023/09/04 07:44:50;;;;;;;0.10;0.10;;;19.60;99.90;;;;;;5049024;28;20273;-82
2023/09/04 07:47:16;;;;;;;0.10;0.10;;;19.60;99.90;;;;;;5048123;28;20282;-82
2023/09/04 07:49:42;;;;;;;0.10;0.10;;;19.90;99.90;;;;;;5056847;28;20716;-82
2023/09/04 07:52:07;;;;;;;0.10;0.10;;;19.70;99.90;;;;;;5050894;28;20197;-82
2023/09/04 07:54:33;;;;;;;0.10;0.10;;;19.90;99.90;;;;;;5051408;28;20241;-82
2023/09/04 07:57:01;;;;;;;0.10;0.10;;;20.20;99.90;;;;;;5065383;28;20213;-82
2023/09/04 07:59:27;;;;;;;0.10;0.10;;;20.10;99.90;;;;;;5049186;28;20209;-82
2023/09/04 08:01:53;;;;;;;0.60;0.60;;;20.10;99.90;;;;;;5049798;28;20328;-82
2023/09/04 08:04:18;;;;;;;0.10;0.10;;;20.00;99.90;;;;;;5051643;28;20242;-82
2023/09/04 08:06:44;;;;;;;0.10;0.10;;;20.10;99.90;;;;;;5047841;28;20208;-82
2023/09/04 08:09:10;;;;;;;0.10;0.10;;;20.20;99.90;;;;;;5048053;28;20189;-82
2023/09/04 08:11:35;;;;;;;0.10;0.10;;;20.60;99.90;;;;;;5047980;28;20182;-82
2023/09/04 08:14:01;;;;;;;0.10;0.10;;;20.40;99.90;;;;;;5047960;28;20189;-82
2023/09/04 08:16:27;;;;;;;0.10;0.10;;;20.30;99.90;;;;;;5047601;28;20714;-82
2023/09/04 08:18:52;;;;;;;0.10;0.10;;;20.40;99.90;;;;;;5047681;28;20182;-82
2023/09/04 08:21:18;;;;;;;0.10;0.10;;;20.20;99.90;;;;;;5047499;28;20202;-82
2023/09/04 08:23:43;;;;;;;0.10;0.10;;;20.40;99.90;;;;;;5048156;28;21027;-82
2023/09/04 08:26:12;;;;;;;0.10;0.10;;;20.50;99.90;;;;;;5049222;28;20288;-82
2023/09/04 08:28:38;;;;;;;0.10;0.10;;;20.80;99.90;;;;;;5062820;28;20173;-82
2023/09/04 08:31:04;;;;;;;0.10;0.10;;;20.70;99.90;;;;;;5046437;28;20199;-82
2023/09/04 08:33:30;;;;;;;0.10;0.10;;;20.80;99.90;;;;;;5047701;28;20186;-82
2023/09/04 08:35:56;;;;;;;0.10;0.10;;;21.00;99.90;;;;;;5064705;28;20213;-82
2023/09/04 08:38:21;;;;;;;0.10;0.10;;;20.60;99.90;;;;;;5047903;28;20185;-82
2023/09/04 08:40:47;;;;;;;0.10;0.10;;;20.70;99.90;;;;;;5047362;28;20182;-82
2023/09/04 08:43:16;;;;;;;0.10;0.10;;;21.20;99.90;;;;;;5046889;28;20182;-82
2023/09/04 08:45:42;;;;;;;0.10;0.10;;;20.90;99.90;;;;;;5063121;28;20205;-82
2023/09/04 08:48:08;;;;;;;0.10;0.10;;;21.40;99.90;;;;;;5048629;28;20186;-82
2023/09/04 08:50:36;;;;;;;0.10;0.10;;;21.60;99.90;;;;;;5048319;28;20165;-82
2023/09/04 08:53:03;;;;;;;0.10;0.10;;;21.50;99.90;;;;;;5047239;28;20626;-82
2023/09/04 08:55:29;;;;;;;0.10;0.10;;;21.70;99.90;;;;;;5047758;28;20734;-82
2023/09/04 08:57:54;;;;;;;0.10;0.10;;;21.10;99.90;;;;;;5046136;28;20272;-82
2023/09/04 09:00:20;;;;;;;0.10;0.10;;;21.10;99.90;;;;;;5046179;28;20213;-82
2023/09/04 09:02:45;;;;;;;0.10;0.10;;;21.40;99.90;;;;;;5046998;28;20194;-82
2023/09/04 09:05:16;;;;;;;0.10;0.10;;;21.60;99.90;;;;;;5048758;28;20240;-82
2023/09/04 09:07:44;;;;;;;0.10;0.10;;;21.70;99.90;;;;;;5046379;28;20619;-82
2023/09/04 09:10:14;;;;;;;0.10;0.10;;;22.00;99.90;;;;;;5046475;28;20188;-82
2023/09/04 09:12:39;;;;;;;0.10;0.10;;;21.60;99.90;;;;;;5044571;28;20616;-82
2023/09/04 09:15:05;;;;;;;0.10;0.10;;;21.20;99.90;;;;;;5046523;28;20182;-82
2023/09/04 09:17:30;;;;;;;0.10;0.10;;;21.80;99.90;;;;;;5046493;28;20208;-82
2023/09/04 09:19:57;;;;;;;0.10;0.10;;;22.10;99.90;;;;;;5047311;28;20208;-82
2023/09/04 09:22:23;;;;;;;0.10;0.10;;;22.10;99.90;;;;;;5046300;28;20209;-82
2023/09/04 09:24:53;;;;;;;0.10;0.10;;;22.30;99.90;;;;;;5046573;28;20610;-82
2023/09/04 09:27:24;;;;;;;0.10;0.10;;;22.00;99.90;;;;;;5061964;28;20205;-82
2023/09/04 09:29:51;;;;;;;0.10;0.10;;;22.30;99.90;;;;;;5045797;28;20186;-82
2023/09/04 09:32:18;;;;;;;0.10;0.10;;;22.40;99.90;;;;;;5046350;28;21201;-82
2023/09/04 09:34:54;;;;;;;0.10;0.10;;;22.00;99.90;;;;;;5047478;28;20277;-82
2023/09/04 09:37:21;;;;;;;0.10;0.10;;;21.60;99.90;;;;;;5046321;28;20708;-82
2023/09/04 09:39:47;;;;;;;0.10;0.10;;;21.80;99.90;;;;;;5045818;28;20193;-82
2023/09/04 09:42:13;;;;;;;0.10;0.10;;;22.30;99.90;;;;;;5046256;28;20202;-82
2023/09/04 09:44:39;;;;;;;0.10;0.10;;;22.60;99.90;;;;;;5047548;28;20184;-82
2023/09/04 09:47:10;;;;;;;0.10;0.10;;;22.70;99.90;;;;;;5044923;28;20263;-82
2023/09/04 09:49:36;;;;;;;0.10;0.10;;;23.00;99.90;;;;;;5045706;28;21125;-82
2023/09/04 09:52:05;;;;;;;0.10;0.10;;;22.70;99.90;;;;;;5046651;28;20681;-82
2023/09/04 09:54:38;;;;;;;0.10;0.10;;;22.90;99.90;;;;;;5046849;28;20208;-82
2023/09/04 09:57:08;;;;;;;0.10;0.10;;;23.30;99.90;;;;;;5044431;28;20221;-82
2023/09/04 09:59:40;;;;;;;0.10;0.10;;;23.20;99.90;;;;;;5046510;28;20399;-82
2023/09/04 10:02:06;;;;;;;0.10;0.10;;;23.40;99.90;;;;;;5046923;28;20211;-82
2023/09/04 10:04:34;;;;;;;0.10;0.10;;;23.30;99.90;;;;;;5045998;28;20174;-82
2023/09/04 10:07:02;;;;;;;0.10;0.10;;;23.70;99.90;;;;;;5044256;28;20201;-82
2023/09/04 10:09:36;;;;;;;0.10;0.10;;;23.60;99.90;;;;;;5054363;28;20223;-82
2023/09/04 10:12:28;;;;;;;0.10;0.10;;;23.60;99.90;;;;;;5053673;28;20253;-82
2023/09/04 10:14:57;;;;;;;0.20;0.20;;;23.70;99.90;;;;;;5045833;28;20288;-82
2023/09/04 10:17:50;;;;;;;0.10;0.10;;;23.40;99.90;;;;;;5044916;28;20284;-82
2023/09/04 10:20:15;;;;;;;0.10;0.10;;;23.40;99.90;;;;;;5033679;28;20197;-82
2023/09/04 10:22:47;;;;;;;0.10;0.10;;;23.60;99.90;;;;;;5046246;28;20194;-82
2023/09/04 10:25:31;;;;;;;0.10;0.10;;;23.60;99.90;;;;;;5045839;28;20182;-82
2023/09/04 10:28:06;;;;;;;0.10;0.10;;;23.00;99.90;;;;;;5045238;28;20208;-82
2023/09/04 10:30:36;;;;;;;0.10;0.10;;;23.30;99.90;;;;;;5060251;28;20178;-83
2023/09/04 10:33:02;;;;;;;0.10;0.10;;;23.50;99.90;;;;;;5044959;28;20219;-82
2023/09/04 10:35:28;;;;;;;0.10;0.10;;;23.80;99.90;;;;;;5044946;28;20263;-82
2023/09/04 10:37:54;;;;;;;0.10;0.10;;;23.50;99.90;;;;;;5044998;28;20315;-82
2023/09/04 10:40:20;;;;;;;0.10;0.10;;;24.00;99.90;;;;;;5044874;28;20193;-82
2023/09/04 10:42:47;;;;;;;0.10;0.10;;;23.70;99.90;;;;;;5052609;28;20205;-82
2023/09/04 10:45:18;;;;;;;0.10;0.10;;;24.30;99.90;;;;;;5043895;28;20197;-82
2023/09/04 10:47:51;;;;;;;0.10;0.10;;;24.50;99.90;;;;;;5046154;28;20347;-82
2023/09/04 10:50:37;;;;;;;0.10;0.10;;;24.30;99.90;;;;;;5035647;28;20170;-82
2023/09/04 10:53:04;;;;;;;0.10;0.10;;;24.30;99.90;;;;;;5045231;28;20220;-82
2023/09/04 10:55:31;;;;;;;0.10;0.10;;;24.70;99.90;;;;;;5044824;28;20230;-82
2023/09/04 10:58:05;;;;;;;0.10;0.10;;;24.70;99.90;;;;;;5044381;28;20216;-83
2023/09/04 11:00:38;;;;;;;0.10;0.10;;;24.60;99.90;;;;;;5052803;28;20277;-82
2023/09/04 11:03:23;;;;;;;0.10;0.10;;;24.80;99.90;;;;;;5045022;28;20185;-82
2023/09/04 11:06:09;;;;;;;0.10;0.10;;;25.20;99.90;;;;;;5044799;28;20197;-82
2023/09/04 11:08:38;;;;;;;0.10;0.10;;;25.30;99.90;;;;;;5045505;28;20276;-82
2023/09/04 11:11:06;;;;;;;0.10;0.10;;;25.50;99.90;;;;;;5044256;28;20211;-83
2023/09/04 11:13:39;;;;;;;0.10;0.10;;;24.90;99.90;;;;;;5044939;28;20188;-82
2023/09/04 11:16:07;;;;;;;0.10;0.10;;;25.50;99.90;;;;;;5036531;28;20216;-82
2023/09/04 11:18:35;;;;;;;0.10;0.10;;;25.50;99.90;;;;;;5046934;28;20178;-83
2023/09/04 11:21:01;;;;;;;0.10;0.10;;;25.80;99.90;;;;;;5049183;28;20202;-82
2023/09/04 11:23:28;;;;;;;0.10;0.10;;;25.80;99.90;;;;;;5065285;28;20609;-82
2023/09/04 11:25:54;;;;;;;0.10;0.10;;;24.80;99.90;;;;;;5048194;28;20213;-82
2023/09/04 11:28:25;;;;;;;0.10;0.10;;;24.90;99.90;;;;;;5048243;28;20264;-83
2023/09/04 11:30:59;;;;;;;0.10;0.10;;;25.30;99.90;;;;;;5048077;28;20674;-82
2023/09/04 11:33:25;;;;;;;0.10;0.10;;;25.10;99.90;;;;;;5049172;28;20174;-82
2023/09/04 11:36:05;;;;;;;0.10;0.10;;;24.80;99.90;;;;;;5048573;28;20202;-82
2023/09/04 11:38:32;;;;;;;0.10;0.10;;;25.00;99.90;;;;;;5048160;28;20543;-83
2023/09/04 11:40:58;;;;;;;0.10;0.10;;;25.10;99.90;;;;;;5047791;28;20192;-82
2023/09/04 11:43:25;;;;;;;0.10;0.10;;;25.60;99.90;;;;;;5047998;28;20181;-82
2023/09/04 11:45:55;;;;;;;0.10;0.10;;;25.80;99.90;;;;;;5061455;28;20207;-82
2023/09/04 11:48:24;;;;;;;0.10;0.10;;;25.90;99.90;;;;;;5046309;28;20194;-82
2023/09/04 11:50:51;;;;;;;0.10;0.10;;;26.10;99.90;;;;;;5057112;28;21118;-82
2023/09/04 11:53:17;;;;;;;0.10;0.10;;;26.30;99.90;;;;;;5039669;28;20177;-83
2023/09/04 11:55:43;;;;;;;0.10;0.10;;;26.20;99.90;;;;;;5047212;28;20202;-82
2023/09/04 11:58:08;;;;;;;0.10;0.10;;;25.60;99.90;;;;;;5047828;28;20242;-82
2023/09/04 12:00:34;;;;;;;0.10;0.10;;;25.50;99.90;;;;;;5046884;28;20170;-82
2023/09/04 12:03:00;;;;;;;0.10;0.10;;;25.50;99.90;;;;;;5047210;28;20625;-82
2023/09/04 12:05:25;;;;;;;0.10;0.10;;;25.80;99.90;;;;;;5048678;28;20181;-82
2023/09/04 12:07:51;;;;;;;0.10;0.10;;;25.30;99.90;;;;;;5063699;28;20198;-82
2023/09/04 12:10:17;;;;;;;0.10;0.10;;;25.90;99.90;;;;;;5048627;28;20382;-82
2023/09/04 12:12:43;;;;;;;0.10;0.10;;;26.10;99.90;;;;;;5048615;28;20188;-83
2023/09/04 12:15:09;;;;;;;0.10;0.10;;;25.90;99.90;;;;;;5047492;28;21946;-83
2023/09/04 12:17:35;;;;;;;0.10;0.10;;;26.10;99.90;;;;;;5047943;28;20193;-83
2023/09/04 12:20:05;;;;;;;0.10;0.10;;;26.10;99.90;;;;;;5046612;28;20212;-82
2023/09/04 12:22:30;;;;;;;0.10;0.10;;;26.20;99.90;;;;;;5039744;28;20271;-82
2023/09/04 12:25:08;;;;;;;0.10;0.10;;;26.40;99.90;;;;;;5048903;28;20209;-82
2023/09/04 12:27:35;;;;;;;0.10;0.10;;;26.50;99.90;;;;;;5047157;28;20297;-82
2023/09/04 12:30:01;;;;;;;0.10;0.10;;;26.20;99.90;;;;;;5045147;28;20193;-82
2023/09/04 12:32:26;;;;;;;0.10;0.10;;;26.60;99.90;;;;;;5047175;28;20546;-82
2023/09/04 12:35:08;;;;;;;0.10;0.10;;;26.60;99.90;;;;;;5045647;28;20190;-82
2023/09/04 12:37:35;;;;;;;0.10;0.10;;;26.80;99.90;;;;;;5046599;28;20231;-82
2023/09/04 12:40:01;;;;;;;0.10;0.10;;;26.60;99.90;;;;;;5047892;28;20553;-82
2023/09/04 12:42:26;;;;;;;0.10;0.10;;;26.50;99.90;;;;;;5046042;28;20243;-82
2023/09/04 12:44:53;;;;;;;0.10;0.10;;;26.70;99.90;;;;;;5046899;28;20185;-82
2023/09/04 12:47:19;;;;;;;0.10;0.10;;;26.70;99.90;;;;;;5047039;28;20197;-83